createdAt,value
2018-12-10T00:01:37.511Z,96.30
2018-12-10T00:04:05.187Z,96.30
2018-12-10T00:06:33.256Z,96.20
2018-12-10T00:09:00.902Z,96.50
2018-12-10T00:11:29.226Z,96.60
2018-12-10T00:13:56.827Z,96.70
2018-12-10T00:16:24.634Z,96.80
2018-12-10T00:18:52.299Z,97.00
2018-12-10T00:21:20.544Z,97.10
2018-12-10T00:23:48.245Z,97.20
2018-12-10T00:26:16.670Z,97.30
2018-12-10T00:28:44.448Z,97.30
2018-12-10T00:31:13.324Z,97.00
2018-12-10T00:33:40.903Z,97.00
2018-12-10T00:36:08.447Z,97.30
2018-12-10T00:38:36.124Z,98.10
2018-12-10T00:41:03.792Z,98.80
2018-12-10T00:43:31.450Z,99.20
2018-12-10T00:45:59.204Z,99.50
2018-12-10T00:48:26.964Z,99.30
2018-12-10T00:50:55.468Z,99.40
2018-12-10T00:53:23.119Z,99.50
2018-12-10T00:55:50.867Z,99.40
2018-12-10T00:58:18.547Z,99.30
2018-12-10T01:00:46.237Z,99.50
2018-12-10T01:03:14.725Z,99.90
2018-12-10T01:05:42.500Z,99.90
2018-12-10T01:08:11.015Z,99.90
2018-12-10T01:10:38.708Z,99.90
2018-12-10T01:13:06.311Z,99.90
2018-12-10T01:15:34.008Z,99.90
2018-12-10T01:18:01.687Z,99.90
2018-12-10T01:20:29.310Z,99.70
2018-12-10T01:22:56.888Z,99.80
2018-12-10T01:25:24.426Z,99.50
2018-12-10T01:27:52.004Z,99.50
2018-12-10T01:30:19.550Z,99.50
2018-12-10T01:32:47.088Z,99.40
2018-12-10T01:35:14.650Z,99.50
2018-12-10T01:37:42.201Z,99.60
2018-12-10T01:40:09.770Z,99.60
2018-12-10T01:42:37.312Z,99.00
2018-12-10T01:45:06.834Z,98.80
2018-12-10T01:47:34.380Z,99.00
2018-12-10T01:50:01.939Z,99.00
2018-12-10T01:52:29.530Z,98.90
2018-12-10T01:54:57.122Z,98.30
2018-12-10T01:57:24.658Z,98.10
2018-12-10T01:59:52.224Z,98.20
2018-12-10T02:02:19.761Z,98.40
2018-12-10T02:04:47.319Z,98.40
2018-12-10T02:07:14.865Z,98.60
2018-12-10T02:09:42.425Z,98.70
2018-12-10T02:12:09.959Z,98.90
2018-12-10T02:14:37.525Z,99.00
2018-12-10T02:17:05.050Z,99.10
2018-12-10T02:19:32.636Z,99.10
2018-12-10T02:22:00.222Z,99.20
2018-12-10T02:24:27.852Z,99.50
2018-12-10T02:26:55.451Z,99.90
2018-12-10T02:29:22.992Z,99.90
2018-12-10T02:31:50.558Z,99.20
2018-12-10T02:34:18.116Z,99.20
2018-12-10T02:36:45.675Z,99.20
2018-12-10T02:39:13.229Z,98.90
2018-12-10T02:41:40.813Z,98.90
2018-12-10T02:44:08.360Z,99.30
2018-12-10T02:46:35.923Z,99.50
2018-12-10T02:49:03.490Z,99.60
2018-12-10T02:51:34.711Z,99.60
2018-12-10T02:54:02.248Z,99.90
2018-12-10T02:56:29.944Z,99.90
2018-12-10T02:58:57.510Z,99.90
2018-12-10T03:01:25.077Z,99.90
2018-12-10T03:03:52.638Z,99.90
2018-12-10T03:06:20.182Z,99.90
2018-12-10T03:08:48.487Z,99.90
2018-12-10T03:11:16.053Z,99.90
2018-12-10T03:13:43.708Z,99.90
2018-12-10T03:16:11.277Z,99.90
2018-12-10T03:18:38.838Z,99.90
2018-12-10T03:21:06.447Z,99.90
2018-12-10T03:23:34.054Z,99.90
2018-12-10T03:26:01.589Z,99.90
2018-12-10T03:28:29.192Z,99.90
2018-12-10T03:30:56.808Z,99.90
2018-12-10T03:33:24.401Z,99.90
2018-12-10T03:35:51.970Z,99.90
2018-12-10T03:38:19.550Z,99.90
2018-12-10T03:40:47.119Z,99.90
2018-12-10T03:43:14.683Z,99.90
2018-12-10T03:45:42.250Z,99.90
2018-12-10T03:48:09.967Z,99.90
2018-12-10T03:50:37.538Z,99.90
2018-12-10T03:53:05.126Z,99.90
2018-12-10T03:55:32.682Z,99.90
2018-12-10T03:58:00.250Z,99.90
2018-12-10T04:00:27.809Z,99.90
2018-12-10T04:02:55.398Z,99.90
2018-12-10T04:05:22.956Z,99.90
2018-12-10T04:07:50.671Z,99.80
2018-12-10T04:10:18.310Z,99.50
2018-12-10T04:12:45.960Z,99.30
2018-12-10T04:15:13.622Z,99.40
2018-12-10T04:17:41.163Z,99.90
2018-12-10T04:20:08.724Z,99.90
2018-12-10T04:22:36.312Z,99.90
2018-12-10T04:25:03.954Z,99.90
2018-12-10T04:27:31.539Z,99.90
2018-12-10T04:29:59.091Z,99.90
2018-12-10T04:32:26.660Z,99.90
2018-12-10T04:34:54.261Z,99.90
2018-12-10T04:37:21.807Z,99.90
2018-12-10T04:39:49.363Z,99.90
2018-12-10T04:42:16.888Z,99.90
2018-12-10T04:44:44.421Z,99.90
2018-12-10T04:47:12.024Z,99.90
2018-12-10T04:49:39.550Z,99.90
2018-12-10T04:52:07.097Z,99.90
2018-12-10T04:54:34.656Z,99.90
2018-12-10T04:57:02.232Z,99.90
2018-12-10T04:59:29.810Z,99.90
2018-12-10T05:01:57.344Z,99.90
2018-12-10T05:04:24.909Z,99.90
2018-12-10T05:06:52.464Z,99.90
2018-12-10T05:09:20.023Z,99.90
2018-12-10T05:11:47.539Z,99.90
2018-12-10T05:14:15.096Z,99.90
2018-12-10T05:16:42.634Z,99.90
2018-12-10T05:19:10.208Z,99.90
2018-12-10T05:21:37.804Z,99.90
2018-12-10T05:24:05.800Z,99.90
2018-12-10T05:26:33.374Z,99.90
2018-12-10T05:29:00.944Z,99.90
2018-12-10T05:31:28.493Z,99.90
2018-12-10T05:33:57.293Z,99.90
2018-12-10T05:36:24.843Z,99.90
2018-12-10T05:38:52.409Z,99.90
2018-12-10T05:41:19.954Z,99.90
2018-12-10T05:43:47.810Z,99.90
2018-12-10T05:46:15.371Z,99.90
2018-12-10T05:49:00.583Z,99.90
2018-12-10T05:51:28.175Z,99.90
2018-12-10T05:53:55.707Z,99.90
2018-12-10T05:56:23.331Z,99.90
2018-12-10T05:58:50.937Z,99.90
2018-12-10T06:01:18.462Z,99.90
2018-12-10T06:03:46.025Z,99.90
2018-12-10T06:06:13.656Z,99.90
2018-12-10T06:08:41.240Z,99.90
2018-12-10T06:11:08.793Z,99.90
2018-12-10T06:13:36.342Z,99.90
2018-12-10T06:16:03.921Z,99.90
2018-12-10T06:18:31.481Z,99.90
2018-12-10T06:20:59.041Z,99.90
2018-12-10T06:23:26.687Z,99.90
2018-12-10T06:25:54.321Z,99.90
2018-12-10T06:28:21.923Z,99.90
2018-12-10T06:30:49.503Z,99.90
2018-12-10T06:33:17.053Z,99.90
2018-12-10T06:35:44.724Z,99.90
2018-12-10T06:38:12.277Z,99.90
2018-12-10T06:40:39.872Z,99.90
2018-12-10T06:43:07.470Z,99.90
2018-12-10T06:45:36.045Z,99.90
2018-12-10T06:48:03.657Z,99.90
2018-12-10T06:50:31.232Z,99.90
2018-12-10T06:52:58.777Z,99.90
2018-12-10T06:55:26.372Z,99.90
2018-12-10T06:57:53.930Z,99.90
2018-12-10T07:00:21.494Z,99.90
2018-12-10T07:02:49.029Z,99.90
2018-12-10T07:05:16.633Z,99.90
2018-12-10T07:07:44.294Z,99.90
2018-12-10T07:10:11.932Z,99.90
2018-12-10T07:12:39.537Z,99.90
2018-12-10T07:15:07.129Z,99.90
2018-12-10T07:17:34.700Z,99.90
2018-12-10T07:20:02.476Z,99.90
2018-12-10T07:22:30.061Z,99.90
2018-12-10T07:24:57.621Z,99.90
2018-12-10T07:27:25.178Z,99.90
2018-12-10T07:29:52.715Z,99.90
2018-12-10T07:32:20.290Z,99.90
2018-12-10T07:34:47.872Z,99.90
2018-12-10T07:37:15.469Z,99.90
2018-12-10T07:39:43.011Z,99.90
2018-12-10T07:42:10.615Z,99.90
2018-12-10T07:44:39.119Z,99.90
2018-12-10T07:47:06.810Z,99.90
2018-12-10T07:49:34.456Z,99.90
2018-12-10T07:52:02.165Z,99.90
2018-12-10T07:54:29.899Z,99.90
2018-12-10T07:56:57.515Z,99.90
2018-12-10T07:59:25.127Z,99.90
2018-12-10T08:01:53.992Z,99.90
2018-12-10T08:04:21.816Z,99.90
2018-12-10T08:06:49.698Z,99.90
2018-12-10T08:09:17.443Z,99.90
2018-12-10T08:11:45.145Z,99.90
2018-12-10T08:14:12.959Z,99.90
2018-12-10T08:16:40.761Z,99.90
2018-12-10T08:19:08.592Z,99.90
2018-12-10T08:21:36.307Z,99.90
2018-12-10T08:24:04.229Z,99.90
2018-12-10T08:26:32.133Z,99.90
2018-12-10T08:29:07.142Z,99.90
2018-12-10T08:31:29.596Z,99.90
2018-12-10T08:33:57.925Z,99.90
2018-12-10T08:36:25.850Z,99.90
2018-12-10T08:38:55.308Z,99.90
2018-12-10T08:41:23.852Z,99.90
2018-12-10T08:43:51.852Z,99.70
2018-12-10T08:46:19.400Z,99.70
2018-12-10T08:48:47.074Z,99.60
2018-12-10T08:51:14.721Z,99.40
2018-12-10T08:53:42.544Z,99.50
2018-12-10T08:56:10.189Z,98.90
2018-12-10T08:58:37.822Z,98.60
2018-12-10T09:01:05.390Z,98.50
2018-12-10T09:03:32.971Z,98.50
2018-12-10T09:06:00.582Z,98.10
2018-12-10T09:08:28.194Z,98.30
2018-12-10T09:10:55.781Z,98.10
2018-12-10T09:13:23.350Z,98.40
2018-12-10T09:15:50.981Z,98.10
2018-12-10T09:18:19.302Z,98.00
2018-12-10T09:20:47.102Z,98.10
2018-12-10T09:23:15.855Z,97.40
2018-12-10T09:25:43.560Z,96.90
2018-12-10T09:28:19.306Z,96.80
2018-12-10T09:30:41.764Z,97.10
2018-12-10T09:33:10.385Z,97.10
2018-12-10T09:35:38.200Z,96.70
2018-12-10T09:38:05.856Z,96.90
2018-12-10T09:40:33.486Z,97.00
2018-12-10T09:43:01.184Z,97.50
2018-12-10T09:45:29.734Z,96.80
2018-12-10T09:47:57.497Z,96.40
2018-12-10T09:50:25.227Z,96.50
2018-12-10T09:52:52.832Z,96.20
2018-12-10T09:55:20.901Z,95.70
2018-12-10T09:57:48.566Z,95.30
2018-12-10T10:00:16.130Z,94.50
2018-12-10T10:02:43.757Z,94.60
2018-12-10T10:05:11.334Z,94.10
2018-12-10T10:07:38.906Z,93.90
2018-12-10T10:10:07.685Z,93.30
2018-12-10T10:12:35.754Z,93.80
2018-12-10T10:15:03.373Z,94.00
2018-12-10T10:17:30.947Z,94.00
2018-12-10T10:19:58.565Z,94.60
2018-12-10T10:22:26.158Z,94.80
2018-12-10T10:24:53.743Z,95.60
2018-12-10T10:27:21.318Z,95.80
2018-12-10T10:29:48.888Z,96.20
2018-12-10T10:32:16.451Z,96.20
2018-12-10T10:41:31.330Z,97.60
2018-12-10T10:43:59.188Z,99.00
2018-12-10T10:46:26.795Z,99.60
2018-12-10T10:48:54.361Z,99.50
2018-12-10T10:51:22.004Z,99.80
2018-12-10T10:53:49.607Z,99.90
2018-12-10T10:56:17.300Z,99.90
2018-12-10T10:58:44.905Z,99.90
2018-12-10T11:01:18.149Z,99.90
2018-12-10T11:03:46.166Z,99.90
2018-12-10T11:06:13.832Z,99.90
2018-12-10T11:08:41.581Z,99.60
2018-12-10T11:11:09.217Z,98.60
2018-12-10T11:13:36.815Z,98.10
2018-12-10T11:16:04.357Z,97.90
2018-12-10T11:18:31.930Z,97.50
2018-12-10T11:20:59.523Z,97.90
2018-12-10T11:23:27.131Z,98.30
2018-12-10T11:25:54.779Z,98.90
2018-12-10T11:28:22.368Z,99.00
2018-12-10T11:30:49.933Z,99.10
2018-12-10T11:33:17.661Z,99.30
2018-12-10T11:35:45.220Z,99.80
2018-12-10T11:38:12.777Z,99.40
2018-12-10T11:40:41.575Z,98.90
2018-12-10T11:43:09.135Z,98.30
2018-12-10T11:45:36.818Z,98.20
2018-12-10T11:48:04.355Z,97.90
2018-12-10T11:50:32.016Z,97.80
2018-12-10T11:52:59.581Z,97.40
2018-12-10T11:55:27.883Z,97.00
2018-12-10T11:57:55.447Z,96.50
2018-12-10T12:00:24.014Z,97.00
2018-12-10T12:02:51.620Z,97.10
2018-12-10T12:05:19.211Z,97.00
2018-12-10T12:07:46.771Z,96.90
2018-12-10T12:10:14.346Z,96.90
2018-12-10T12:12:42.046Z,96.90
2018-12-10T12:15:09.626Z,96.70
2018-12-10T12:17:37.225Z,96.80
2018-12-10T12:20:07.701Z,97.30
2018-12-10T12:22:35.310Z,97.60
2018-12-10T12:25:02.921Z,97.50
2018-12-10T12:27:30.529Z,97.40
2018-12-10T12:29:58.127Z,97.40
2018-12-10T12:32:25.671Z,97.40
2018-12-10T12:34:53.300Z,97.60
2018-12-10T12:37:20.842Z,97.50
2018-12-10T12:39:48.415Z,96.80
2018-12-10T12:42:15.963Z,97.30
2018-12-10T12:44:43.540Z,97.30
2018-12-10T12:47:11.093Z,97.10
2018-12-10T12:49:39.514Z,97.40
2018-12-10T12:52:07.167Z,97.20
2018-12-10T12:54:34.778Z,96.80
2018-12-10T12:57:02.352Z,96.00
2018-12-10T12:59:29.919Z,95.30
2018-12-10T13:01:57.500Z,94.60
2018-12-10T13:04:27.113Z,94.80
2018-12-10T13:06:54.755Z,94.50
2018-12-10T13:09:22.385Z,94.70
2018-12-10T13:11:49.941Z,95.40
2018-12-10T13:14:17.513Z,95.20
2018-12-10T13:16:49.358Z,95.90
2018-12-10T13:19:14.668Z,96.10
2018-12-10T13:21:42.356Z,96.20
2018-12-10T13:24:09.989Z,96.20
2018-12-10T13:26:37.722Z,96.20
2018-12-10T13:29:05.512Z,96.00
2018-12-10T13:31:33.226Z,95.50
2018-12-10T13:34:00.888Z,95.20
2018-12-10T13:36:28.503Z,95.00
2018-12-10T13:38:57.007Z,94.20
2018-12-10T13:41:24.668Z,94.90
2018-12-10T13:43:52.278Z,95.20
2018-12-10T13:46:19.853Z,95.00
2018-12-10T13:48:47.423Z,95.20
2018-12-10T13:51:14.977Z,95.80
2018-12-10T13:53:42.536Z,96.10
2018-12-10T13:56:10.183Z,95.70
2018-12-10T13:58:37.762Z,95.40
2018-12-10T14:01:05.317Z,95.60
2018-12-10T14:03:32.878Z,95.00
2018-12-10T14:06:00.466Z,94.80
2018-12-10T14:08:28.049Z,95.00
2018-12-10T14:10:55.758Z,94.70
2018-12-10T14:13:23.433Z,94.40
2018-12-10T14:15:51.207Z,93.90
2018-12-10T14:18:18.831Z,94.00
2018-12-10T14:20:46.360Z,93.90
2018-12-10T14:23:13.921Z,93.50
2018-12-10T14:25:42.463Z,93.40
2018-12-10T14:28:10.018Z,93.70
2018-12-10T14:30:38.034Z,93.40
2018-12-10T14:33:05.594Z,93.80
2018-12-10T14:35:33.183Z,93.30
2018-12-10T14:38:00.798Z,93.40
2018-12-10T14:40:28.386Z,93.00
2018-12-10T14:42:56.043Z,93.00
2018-12-10T14:45:23.617Z,93.10
2018-12-10T14:47:51.209Z,92.90
2018-12-10T14:50:18.820Z,93.40
2018-12-10T14:52:46.397Z,93.80
2018-12-10T14:55:14.038Z,94.00
2018-12-10T14:57:41.759Z,94.10
2018-12-10T15:00:10.171Z,94.00
2018-12-10T15:02:37.752Z,94.30
2018-12-10T15:05:06.787Z,94.50
2018-12-10T15:07:35.006Z,94.40
2018-12-10T15:10:02.666Z,94.50
2018-12-10T15:12:30.223Z,94.40
2018-12-10T15:14:57.784Z,94.50
2018-12-10T15:17:25.524Z,94.70
2018-12-10T15:19:53.270Z,94.20
2018-12-10T15:22:20.846Z,93.40
2018-12-10T15:24:48.489Z,92.30
2018-12-10T15:27:16.173Z,92.20
2018-12-10T15:29:43.754Z,92.20
2018-12-10T15:32:11.420Z,91.70
2018-12-10T15:34:39.088Z,92.20
2018-12-10T15:37:06.705Z,91.60
2018-12-10T15:39:34.371Z,91.30
2018-12-10T15:42:01.987Z,91.30
2018-12-10T15:44:29.552Z,91.30
2018-12-10T15:46:57.139Z,90.50
2018-12-10T15:49:24.757Z,88.70
2018-12-10T15:51:52.339Z,88.70
2018-12-10T15:54:19.918Z,88.50
2018-12-10T15:56:47.509Z,88.30
2018-12-10T15:59:16.067Z,87.40
2018-12-10T16:01:44.490Z,88.40
2018-12-10T16:04:15.081Z,88.40
2018-12-10T16:06:42.629Z,88.90
2018-12-10T16:09:10.319Z,89.90
2018-12-10T16:11:37.934Z,90.40
2018-12-10T16:14:05.703Z,90.60
2018-12-10T16:16:33.276Z,90.70
2018-12-10T16:19:00.938Z,90.80
2018-12-10T16:21:28.661Z,90.80
2018-12-10T16:23:56.383Z,90.50
2018-12-10T16:26:24.118Z,90.00
2018-12-10T16:28:52.027Z,90.20
2018-12-10T16:31:20.895Z,90.20
2018-12-10T16:33:49.022Z,90.20
2018-12-10T16:36:17.576Z,90.50
2018-12-10T16:38:45.876Z,90.40
2018-12-10T16:41:13.509Z,90.50
2018-12-10T16:43:41.789Z,90.80
2018-12-10T16:46:09.645Z,91.40
2018-12-10T16:48:37.312Z,91.60
2018-12-10T16:51:05.072Z,91.70
2018-12-10T16:53:32.729Z,91.90
2018-12-10T16:56:00.398Z,92.00
2018-12-10T16:58:28.151Z,92.00
2018-12-10T17:00:55.857Z,91.90
2018-12-10T17:03:23.568Z,92.00
2018-12-10T17:05:51.779Z,92.40
2018-12-10T17:08:19.454Z,92.20
2018-12-10T17:10:47.139Z,92.30
2018-12-10T17:13:14.931Z,92.50
2018-12-10T17:15:43.630Z,92.60
2018-12-10T17:18:11.345Z,92.80
2018-12-10T17:20:39.073Z,93.00
2018-12-10T17:23:06.730Z,92.90
2018-12-10T17:25:34.519Z,92.90
2018-12-10T17:28:02.108Z,92.90
2018-12-10T17:30:29.686Z,93.10
2018-12-10T17:32:59.040Z,93.20
2018-12-10T17:35:26.839Z,93.40
2018-12-10T17:37:55.586Z,93.70
2018-12-10T17:40:23.325Z,93.90
2018-12-10T17:42:50.999Z,93.70
2018-12-10T17:45:18.637Z,93.90
2018-12-10T17:47:46.201Z,93.40
2018-12-10T17:50:13.790Z,93.30
2018-12-10T17:52:41.420Z,93.10
2018-12-10T17:55:09.007Z,93.30
2018-12-10T17:57:36.636Z,93.20
2018-12-10T18:00:06.150Z,93.30
2018-12-10T18:02:33.709Z,92.90
2018-12-10T18:05:01.384Z,93.00
2018-12-10T18:07:29.927Z,92.90
2018-12-10T18:09:57.640Z,92.80
2018-12-10T18:12:25.882Z,92.70
2018-12-10T18:14:54.625Z,92.60
2018-12-10T18:17:22.325Z,92.50
2018-12-10T18:19:50.106Z,92.30
2018-12-10T18:22:17.888Z,92.10
2018-12-10T18:24:45.880Z,92.00
2018-12-10T18:27:14.461Z,91.70
2018-12-10T18:29:42.913Z,91.70
2018-12-10T18:32:11.399Z,91.70
2018-12-10T18:34:39.156Z,91.80
2018-12-10T18:37:06.817Z,91.90
2018-12-10T18:39:37.441Z,91.90
2018-12-10T18:42:14.035Z,92.00
2018-12-10T18:44:41.804Z,92.20
2018-12-10T18:47:09.615Z,92.30
2018-12-10T18:49:37.518Z,92.20
2018-12-10T18:52:05.385Z,92.10
2018-12-10T18:54:33.435Z,91.90
2018-12-10T18:57:01.083Z,92.10
2018-12-10T18:59:28.762Z,92.40
2018-12-10T19:01:56.556Z,92.60
2018-12-10T19:04:24.307Z,92.80
2018-12-10T19:06:52.052Z,93.00
2018-12-10T19:09:19.758Z,93.20
2018-12-10T19:11:47.455Z,93.40
2018-12-10T19:14:15.128Z,93.70
2018-12-10T19:16:42.726Z,93.80
2018-12-10T19:19:10.469Z,93.80
2018-12-10T19:21:38.117Z,93.70
2018-12-10T19:24:05.902Z,94.10
2018-12-10T19:26:33.609Z,94.10
2018-12-10T19:29:01.263Z,94.20
2018-12-10T19:31:29.077Z,94.20
2018-12-10T19:34:03.459Z,94.30
2018-12-10T19:36:27.399Z,94.50
2018-12-10T19:38:55.078Z,94.20
2018-12-10T19:41:22.770Z,94.10
2018-12-10T19:43:50.476Z,93.90
2018-12-10T19:46:18.200Z,93.70
2018-12-10T19:48:46.831Z,93.40
2018-12-10T19:51:14.455Z,93.50
2018-12-10T19:53:42.088Z,93.10
2018-12-10T19:56:09.779Z,93.10
2018-12-10T19:58:37.519Z,93.50
2018-12-10T20:01:05.926Z,93.50
2018-12-10T20:03:33.525Z,93.50
2018-12-10T20:06:06.867Z,93.50
2018-12-10T20:08:34.449Z,93.40
2018-12-10T20:11:02.051Z,93.10
2018-12-10T20:13:30.037Z,92.80
2018-12-10T20:15:57.640Z,92.80
2018-12-10T20:18:25.243Z,92.70
2018-12-10T20:20:53.496Z,92.20
2018-12-10T20:23:21.116Z,92.20
2018-12-10T20:25:48.857Z,92.00
2018-12-10T20:28:16.610Z,91.90
2018-12-10T20:30:44.309Z,91.70
2018-12-10T20:33:12.032Z,91.50
2018-12-10T20:35:39.781Z,91.40
2018-12-10T20:38:07.476Z,91.30
2018-12-10T20:40:35.304Z,91.20
2018-12-10T20:43:02.939Z,91.60
2018-12-10T20:45:30.533Z,91.20
2018-12-10T20:47:58.131Z,91.30
2018-12-10T20:50:25.782Z,91.20
2018-12-10T20:52:53.346Z,91.10
2018-12-10T20:55:21.801Z,91.00
2018-12-10T20:57:49.449Z,90.90
2018-12-10T21:00:17.438Z,91.00
2018-12-10T21:02:44.991Z,91.10
2018-12-10T21:05:12.660Z,91.30
2018-12-10T21:07:40.240Z,91.40
2018-12-10T21:10:07.833Z,91.30
2018-12-10T21:12:35.480Z,91.50
2018-12-10T21:15:05.596Z,91.70
2018-12-10T21:17:33.170Z,91.80
2018-12-10T21:20:00.709Z,91.70
2018-12-10T21:22:28.339Z,91.80
2018-12-10T21:24:55.917Z,91.80
2018-12-10T21:27:23.475Z,91.80
2018-12-10T21:29:51.091Z,92.00
2018-12-10T21:32:18.678Z,91.80
2018-12-10T21:34:46.266Z,91.60
2018-12-10T21:37:13.821Z,91.20
2018-12-10T21:39:41.405Z,91.00
2018-12-10T21:42:09.925Z,90.90
2018-12-10T21:44:37.640Z,91.00
2018-12-10T21:47:06.450Z,91.00
2018-12-10T21:49:34.067Z,91.00
2018-12-10T21:52:01.684Z,91.20
2018-12-10T21:54:29.262Z,91.10
2018-12-10T21:56:56.842Z,91.20
2018-12-10T21:59:25.382Z,91.20
2018-12-10T22:01:53.110Z,91.20
2018-12-10T22:04:21.347Z,91.00
2018-12-10T22:06:48.922Z,91.20
2018-12-10T22:09:16.522Z,90.90
2018-12-10T22:11:44.122Z,91.00
2018-12-10T22:14:11.680Z,91.00
2018-12-10T22:16:39.259Z,90.80
2018-12-10T22:19:06.876Z,91.00
2018-12-10T22:21:34.454Z,91.20
2018-12-10T22:24:02.039Z,91.50
2018-12-10T22:26:29.670Z,91.40
2018-12-10T22:28:58.246Z,91.30
2018-12-10T22:31:25.814Z,91.30
2018-12-10T22:33:53.396Z,91.30
2018-12-10T22:36:20.942Z,91.30
2018-12-10T22:38:49.373Z,91.10
2018-12-10T22:41:16.981Z,91.30
2018-12-10T22:43:44.514Z,91.20
2018-12-10T22:46:12.079Z,91.20
2018-12-10T22:48:39.864Z,91.40
2018-12-10T22:51:07.407Z,91.40
2018-12-10T22:53:34.986Z,91.60
2018-12-10T22:56:02.550Z,91.80
2018-12-10T22:58:30.161Z,92.00
2018-12-10T23:00:58.687Z,92.10
2018-12-10T23:03:26.362Z,92.20
2018-12-10T23:05:53.905Z,92.30
2018-12-10T23:08:21.474Z,92.40
2018-12-10T23:10:49.041Z,92.40
2018-12-10T23:13:16.694Z,92.30
2018-12-10T23:15:44.328Z,92.30
2018-12-10T23:18:11.887Z,92.40
2018-12-10T23:20:39.476Z,92.10
2018-12-10T23:23:07.146Z,92.00
2018-12-10T23:25:34.715Z,92.20
2018-12-10T23:28:02.339Z,92.30
2018-12-10T23:30:29.964Z,92.60
2018-12-10T23:32:57.530Z,93.00
2018-12-10T23:35:25.123Z,93.20
2018-12-10T23:37:52.673Z,93.20
2018-12-10T23:40:20.233Z,93.20
2018-12-10T23:42:53.453Z,93.00
2018-12-10T23:45:21.071Z,92.90
2018-12-10T23:47:48.672Z,92.90
2018-12-10T23:50:16.294Z,92.70
2018-12-10T23:52:43.849Z,92.60
2018-12-10T23:55:11.427Z,92.40
2018-12-10T23:57:38.995Z,92.30
